Time;durP1;ratioP1;P1;durP2;ratioP2;P2;SDS_P1;SDS_P2;PMS_P1;PMS_P2;Temp;Humidity;BMP_temperature;BMP_pressure;BME280_temperature;BME280_humidity;BME280_pressure;Samples;Min_cycle;Max_cycle;Signal;HPM_P1;HPM_P2
2023/11/23 00:01:20;;;;;;;1.75;0.95;;;;;;;10.21;100.00;102029.53;5000176;28;20054;-47
2023/11/23 00:03:47;;;;;;;1.25;0.90;;;;;;;10.20;100.00;102025.13;4984003;28;20042;-42
2023/11/23 00:06:14;;;;;;;1.73;1.50;;;;;;;10.18;100.00;102023.78;4982423;28;20050;-45
2023/11/23 00:08:43;;;;;;;0.80;0.80;;;;;;;10.15;100.00;102027.19;4986210;28;20058;-43
2023/11/23 00:11:10;;;;;;;2.85;0.85;;;;;;;10.13;100.00;102021.16;4978250;28;20054;-44
2023/11/23 00:13:38;;;;;;;1.77;0.80;;;;;;;10.11;100.00;102018.66;4988132;28;20400;-44
2023/11/23 00:16:06;;;;;;;1.73;0.60;;;;;;;10.08;100.00;102010.16;4988377;28;20051;-43
2023/11/23 00:18:33;;;;;;;1.73;0.68;;;;;;;10.05;100.00;102017.16;4987602;28;20046;-43
2023/11/23 00:21:00;;;;;;;1.50;0.50;;;;;;;10.03;100.00;102015.81;4987837;28;20069;-43
2023/11/23 00:23:27;;;;;;;0.40;0.40;;;;;;;10.00;100.00;102014.50;4987456;28;20101;-43
2023/11/23 00:25:55;;;;;;;0.90;0.57;;;;;;;9.98;100.00;102013.97;4988088;28;20424;-43
2023/11/23 00:28:22;;;;;;;0.90;0.38;;;;;;;9.96;100.00;101999.63;4986757;28;20047;-43
2023/11/23 00:30:49;;;;;;;1.67;0.47;;;;;;;9.95;100.00;102003.53;4988015;28;20440;-43
2023/11/23 00:33:18;;;;;;;0.82;0.70;;;;;;;9.94;100.00;102007.44;4988067;28;20092;-43
2023/11/23 00:35:45;;;;;;;0.73;0.30;;;;;;;9.93;100.00;101999.44;4982517;28;20069;-48
2023/11/23 00:38:18;;;;;;;0.40;0.40;;;;;;;9.92;100.00;101998.63;4987097;28;20053;-44
2023/11/23 00:40:46;;;;;;;0.52;0.45;;;;;;;9.90;100.00;102006.38;4987191;28;20388;-43
2023/11/23 00:43:14;;;;;;;0.93;0.55;;;;;;;9.90;100.00;101998.09;4988159;28;20046;-43
2023/11/23 00:45:41;;;;;;;3.53;0.45;;;;;;;9.90;100.00;102000.06;4987518;28;20054;-42
2023/11/23 00:48:09;;;;;;;0.60;0.43;;;;;;;9.92;100.00;102006.09;4987531;28;20046;-43
2023/11/23 00:50:36;;;;;;;0.68;0.35;;;;;;;9.93;100.00;102000.25;4987004;28;20053;-44
2023/11/23 00:53:03;;;;;;;0.35;0.30;;;;;;;9.94;100.00;102003.84;4988105;28;20054;-43
2023/11/23 00:55:31;;;;;;;0.20;0.20;;;;;;;9.94;100.00;102001.06;4987347;28;20046;-44
2023/11/23 00:57:58;;;;;;;1.98;0.68;;;;;;;9.95;100.00;101981.41;4987363;28;20401;-45
2023/11/23 01:00:28;;;;;;;1.02;0.30;;;;;;;9.98;100.00;101996.56;4979051;28;20057;-43
2023/11/23 01:02:56;;;;;;;0.85;0.40;;;;;;;9.99;100.00;101993.47;5015106;28;20072;-44
2023/11/23 01:05:23;;;;;;;2.38;1.17;;;;;;;10.01;100.00;102004.22;5025255;28;20046;-48
2023/11/23 01:07:51;;;;;;;0.28;0.20;;;;;;;10.03;100.00;101991.75;5026751;28;20045;-44
2023/11/23 01:10:18;;;;;;;0.90;0.20;;;;;;;10.03;100.00;101988.97;5026618;28;20411;-43
2023/11/23 01:12:45;;;;;;;0.77;0.38;;;;;;;10.04;100.00;101990.59;5026757;28;20046;-44
2023/11/23 01:15:13;;;;;;;0.50;0.30;;;;;;;10.04;100.00;101987.81;5026763;28;20048;-43
2023/11/23 01:17:40;;;;;;;2.35;0.30;;;;;;;10.05;100.00;101992.25;5017858;28;20049;-44
2023/11/23 01:20:08;;;;;;;0.80;0.38;;;;;;;10.06;100.00;101999.38;5026812;28;20773;-47
2023/11/23 01:22:36;;;;;;;1.40;0.70;;;;;;;10.06;100.00;102004.13;5030381;28;20051;-44
2023/11/23 01:25:06;;;;;;;2.67;0.30;;;;;;;10.05;100.00;101989.47;5030408;28;20121;-44
2023/11/23 01:27:35;;;;;;;1.35;0.30;;;;;;;10.06;100.00;101996.63;5030434;28;20064;-44
2023/11/23 01:30:06;;;;;;;0.65;0.32;;;;;;;10.06;100.00;101991.09;5030040;28;20038;-44
2023/11/23 01:32:33;;;;;;;1.35;0.22;;;;;;;10.06;100.00;101993.84;5030341;28;20053;-44
2023/11/23 01:35:02;;;;;;;0.20;0.15;;;;;;;10.07;100.00;101989.97;5030298;28;20045;-44
2023/11/23 01:37:29;;;;;;;0.70;0.25;;;;;;;10.07;100.00;101984.44;5030006;28;20384;-44
2023/11/23 01:39:57;;;;;;;1.25;0.30;;;;;;;10.08;100.00;101977.78;5030567;28;20056;-44
2023/11/23 01:42:24;;;;;;;1.48;0.22;;;;;;;10.08;100.00;101986.09;5017019;28;20046;-45
2023/11/23 01:44:51;;;;;;;0.60;0.30;;;;;;;10.08;100.00;101982.50;5016605;28;20530;-44
2023/11/23 01:47:19;;;;;;;0.55;0.22;;;;;;;10.08;100.00;101980.56;5029865;28;20103;-54
2023/11/23 01:49:48;;;;;;;0.43;0.20;;;;;;;10.07;100.00;101972.53;5029826;28;20038;-43
2023/11/23 01:52:15;;;;;;;0.93;0.30;;;;;;;10.06;100.00;101982.78;5028617;28;20061;-44
2023/11/23 01:54:42;;;;;;;0.15;0.15;;;;;;;10.05;100.00;101970.09;5029564;28;20403;-44
2023/11/23 01:57:11;;;;;;;5.72;0.93;;;;;;;10.06;100.00;101971.72;5030251;28;20057;-43
2023/11/23 01:59:38;;;;;;;0.25;0.25;;;;;;;10.04;100.00;101974.00;5029204;28;20048;-44
2023/11/23 02:02:06;;;;;;;0.25;0.10;;;;;;;10.04;100.00;101979.53;5029295;28;20057;-44
2023/11/23 02:04:33;;;;;;;0.40;0.25;;;;;;;10.04;100.00;101982.28;5028584;28;20095;-44
2023/11/23 02:07:01;;;;;;;2.30;0.30;;;;;;;10.06;100.00;101980.03;5030002;28;20050;-43
2023/11/23 02:09:30;;;;;;;0.10;0.10;;;;;;;10.07;100.00;101978.91;5029660;28;20525;-43
2023/11/23 02:11:58;;;;;;;0.10;0.10;;;;;;;10.07;100.00;101976.13;5028675;28;20045;-44
2023/11/23 02:14:25;;;;;;;0.20;0.20;;;;;;;10.08;100.00;101963.13;5029310;28;20159;-44
2023/11/23 02:16:53;;;;;;;0.32;0.10;;;;;;;10.07;100.00;101959.53;5028682;28;20049;-43
2023/11/23 02:19:21;;;;;;;0.10;0.10;;;;;;;10.09;100.00;101960.03;5025304;28;20392;-44
2023/11/23 02:21:49;;;;;;;0.60;0.15;;;;;;;10.08;100.00;101963.94;5022824;28;20728;-46
2023/11/23 02:24:16;;;;;;;0.20;0.10;;;;;;;10.06;100.00;101968.97;5017099;28;20042;-44
2023/11/23 02:26:46;;;;;;;0.80;0.40;;;;;;;10.05;100.00;101953.50;5029023;28;20053;-43
2023/11/23 02:29:13;;;;;;;0.52;0.20;;;;;;;10.04;100.00;101942.72;5020113;28;20075;-44
2023/11/23 02:31:41;;;;;;;0.95;0.17;;;;;;;10.03;100.00;101925.34;5022402;28;20057;-43
2023/11/23 02:34:09;;;;;;;0.10;0.10;;;;;;;10.02;100.00;101937.53;5025027;28;20060;-44
2023/11/23 02:36:36;;;;;;;0.63;0.20;;;;;;;10.01;100.00;101933.09;5011117;28;20049;-44
2023/11/23 02:39:04;;;;;;;1.60;0.10;;;;;;;9.99;100.00;101904.94;5028600;28;20061;-45
2023/11/23 02:41:31;;;;;;;0.43;0.10;;;;;;;9.98;100.00;101908.84;5029101;28;20056;-42
2023/11/23 02:43:59;;;;;;;0.10;0.10;;;;;;;9.97;100.00;101929.34;5027966;28;20053;-45
2023/11/23 02:46:27;;;;;;;1.75;0.10;;;;;;;9.94;100.00;101910.59;5021108;28;20523;-44
2023/11/23 02:48:55;;;;;;;0.85;0.08;;;;;;;9.92;100.00;101921.16;5029058;28;20050;-45
2023/11/23 02:51:22;;;;;;;0.25;0.10;;;;;;;9.91;100.00;101919.53;5009698;28;20046;-44
2023/11/23 02:53:50;;;;;;;0.30;0.17;;;;;;;9.91;100.00;101925.06;5023210;28;20060;-45
2023/11/23 02:56:17;;;;;;;0.63;0.20;;;;;;;9.89;100.00;101935.63;5028748;28;20057;-44
2023/11/23 02:58:46;;;;;;;2.40;0.20;;;;;;;9.89;100.00;101937.56;5027394;28;20407;-44
2023/11/23 03:01:14;;;;;;;0.65;0.20;;;;;;;9.89;100.00;101923.72;5093772;22;20057;-44
2023/11/23 03:03:41;;;;;;;1.88;0.20;;;;;;;9.90;100.00;101919.84;5022745;28;20042;-43
2023/11/23 03:06:09;;;;;;;0.57;0.30;;;;;;;9.89;100.00;101929.25;5027921;28;20497;-46
2023/11/23 03:08:36;;;;;;;0.47;0.20;;;;;;;9.90;100.00;101933.69;5027395;28;20053;-43
2023/11/23 03:11:04;;;;;;;0.98;0.20;;;;;;;9.90;100.00;101933.69;5020899;28;21292;-43
2023/11/23 03:13:32;;;;;;;0.85;0.10;;;;;;;9.90;100.00;101930.91;5027217;28;20050;-43
2023/11/23 03:15:59;;;;;;;1.88;0.15;;;;;;;9.89;100.00;101927.31;5026632;28;20082;-43
2023/11/23 03:18:26;;;;;;;1.08;0.20;;;;;;;9.90;100.00;101931.69;5027543;28;20418;-43
2023/11/23 03:20:54;;;;;;;1.23;0.10;;;;;;;9.88;100.00;101925.66;5019488;28;20515;-46
2023/11/23 03:23:21;;;;;;;0.35;0.10;;;;;;;9.90;100.00;101934.47;5027773;28;20151;-43
2023/11/23 03:25:48;;;;;;;0.60;0.28;;;;;;;9.90;100.00;101939.22;5027817;28;20049;-47
2023/11/23 03:28:16;;;;;;;0.77;0.10;;;;;;;9.89;100.00;101951.41;5028127;28;20499;-44
2023/11/23 03:30:43;;;;;;;0.00;0.00;;;;;;;9.89;100.00;101954.97;5026974;28;20049;-43
2023/11/23 03:33:11;;;;;;;2.72;0.20;;;;;;;9.88;100.00;101953.34;5020411;28;20049;-43
2023/11/23 03:35:40;;;;;;;0.20;0.10;;;;;;;9.89;100.00;101966.03;5027386;28;20064;-45
2023/11/23 03:38:07;;;;;;;0.40;0.17;;;;;;;9.88;100.00;101961.63;5027096;28;20509;-43
2023/11/23 03:40:37;;;;;;;0.20;0.20;;;;;;;9.89;100.00;101968.81;5027473;28;20053;-43
2023/11/23 03:43:04;;;;;;;0.22;0.10;;;;;;;9.89;100.00;101960.50;5027141;28;20089;-48
2023/11/23 03:45:32;;;;;;;0.80;0.40;;;;;;;9.89;100.00;101954.97;5026418;28;20042;-43
2023/11/23 03:47:59;;;;;;;1.77;0.30;;;;;;;9.88;100.00;101947.81;5027578;28;20057;-43
2023/11/23 03:50:26;;;;;;;0.90;0.30;;;;;;;9.90;100.00;101945.53;5026374;28;20355;-43
2023/11/23 03:52:54;;;;;;;0.28;0.28;;;;;;;9.89;100.00;101934.78;5027289;28;20053;-43
2023/11/23 03:55:22;;;;;;;0.22;0.10;;;;;;;9.90;100.00;101951.06;5026135;28;20153;-44
2023/11/23 03:57:49;;;;;;;4.28;0.32;;;;;;;9.90;100.00;101944.75;5027879;28;20603;-43
2023/11/23 04:00:17;;;;;;;1.17;0.30;;;;;;;9.88;100.00;101945.03;5027091;28;20054;-44
2023/11/23 04:02:46;;;;;;;0.10;0.10;;;;;;;9.90;100.00;101933.69;5026449;28;20060;-43
2023/11/23 04:05:17;;;;;;;0.88;0.30;;;;;;;9.88;100.00;101930.38;5024815;28;20411;-43
2023/11/23 04:07:48;;;;;;;5.50;0.90;;;;;;;9.88;100.00;101920.13;5019733;28;20403;-44
2023/11/23 04:10:16;;;;;;;1.02;0.28;;;;;;;9.88;100.00;101936.75;5009818;28;20061;-43
2023/11/23 04:12:44;;;;;;;1.98;0.20;;;;;;;9.87;100.00;101929.59;5026881;28;20061;-43
2023/11/23 04:15:14;;;;;;;0.70;0.17;;;;;;;9.88;100.00;101931.22;5023767;28;20033;-43
2023/11/23 04:17:41;;;;;;;1.67;0.20;;;;;;;9.88;100.00;101924.84;5027034;28;20041;-43
2023/11/23 04:20:09;;;;;;;0.52;0.30;;;;;;;9.86;100.00;101911.34;5025510;28;20528;-44
2023/11/23 04:22:37;;;;;;;1.23;0.28;;;;;;;9.88;100.00;101903.53;5023935;28;20057;-43
2023/11/23 04:25:05;;;;;;;0.13;0.13;;;;;;;9.88;100.00;101895.25;5026777;28;20586;-43
2023/11/23 04:27:33;;;;;;;0.55;0.13;;;;;;;9.88;100.00;101881.41;5026778;28;20410;-43
2023/11/23 04:30:00;;;;;;;0.77;0.25;;;;;;;9.87;100.00;101882.56;5026512;28;20056;-43
2023/11/23 04:32:28;;;;;;;4.22;0.30;;;;;;;9.86;100.00;101882.88;5008480;28;20064;-46
2023/11/23 04:34:55;;;;;;;1.05;0.40;;;;;;;9.87;100.00;101888.09;5027072;28;20053;-43
2023/11/23 04:37:23;;;;;;;2.47;0.57;;;;;;;9.87;100.00;101884.50;5025992;28;20044;-44
2023/11/23 04:39:51;;;;;;;0.88;0.40;;;;;;;9.88;100.00;101875.06;5025811;28;20590;-43
2023/11/23 04:42:19;;;;;;;5.82;0.95;;;;;;;9.87;100.00;101888.09;5026716;28;20050;-43
2023/11/23 04:44:46;;;;;;;0.82;0.30;;;;;;;9.88;100.00;101881.41;5007622;28;20045;-43
2023/11/23 04:47:13;;;;;;;2.40;0.43;;;;;;;9.88;100.00;101886.13;5025920;28;20613;-50
2023/11/23 04:49:41;;;;;;;1.42;0.30;;;;;;;9.88;100.00;101899.97;5019078;28;20041;-43
2023/11/23 04:52:08;;;;;;;0.88;0.30;;;;;;;9.89;100.00;101899.66;5026644;28;20053;-47
2023/11/23 04:54:35;;;;;;;0.10;0.10;;;;;;;9.88;100.00;101911.84;5017829;28;20063;-44
2023/11/23 04:57:03;;;;;;;1.45;0.40;;;;;;;9.88;100.00;101892.47;5030141;28;20053;-46
2023/11/23 04:59:30;;;;;;;0.63;0.20;;;;;;;9.89;100.00;101899.66;5023063;28;20742;-45
2023/11/23 05:01:58;;;;;;;2.55;0.20;;;;;;;9.90;100.00;101895.75;5021234;28;20057;-43
2023/11/23 05:04:25;;;;;;;0.75;0.38;;;;;;;9.90;100.00;101901.28;5030026;28;20053;-44
2023/11/23 05:06:55;;;;;;;0.52;0.25;;;;;;;9.90;100.00;101906.81;5026030;28;20078;-43
2023/11/23 05:09:23;;;;;;;1.55;0.22;;;;;;;9.90;100.00;101922.63;5011706;28;20042;-43
2023/11/23 05:11:50;;;;;;;0.80;0.30;;;;;;;9.91;100.00;101913.16;5028178;28;20049;-43
2023/11/23 05:14:17;;;;;;;0.55;0.20;;;;;;;9.90;100.00;101915.09;5029794;28;20053;-43
2023/11/23 05:16:46;;;;;;;2.50;0.20;;;;;;;9.89;100.00;101910.72;5030543;28;20089;-43
2023/11/23 05:19:13;;;;;;;0.47;0.20;;;;;;;9.90;100.00;101922.63;5025254;28;20050;-43
2023/11/23 05:21:54;;;;;;;2.00;0.20;;;;;;;9.89;100.00;101916.25;5027305;28;20052;-43
2023/11/23 05:24:21;;;;;;;0.60;0.20;;;;;;;9.89;100.00;101905.19;5030026;28;20056;-43
2023/11/23 05:26:48;;;;;;;0.55;0.40;;;;;;;9.88;100.00;101886.94;5030243;28;20057;-46
2023/11/23 05:29:16;;;;;;;2.97;0.30;;;;;;;9.89;100.00;101894.13;5027039;28;20050;-43
2023/11/23 05:31:43;;;;;;;0.63;0.30;;;;;;;9.86;100.00;101894.75;5030049;28;20123;-43
2023/11/23 05:34:11;;;;;;;0.47;0.28;;;;;;;9.85;100.00;101895.88;5030213;28;20495;-43
2023/11/23 05:36:38;;;;;;;1.75;0.20;;;;;;;9.85;100.00;101897.84;5029841;28;20045;-46
2023/11/23 05:39:05;;;;;;;0.98;0.20;;;;;;;9.83;100.00;101895.38;5029792;28;20072;-43
2023/11/23 05:41:32;;;;;;;0.63;0.30;;;;;;;9.83;100.00;101889.84;5026217;28;20045;-43
2023/11/23 05:44:00;;;;;;;2.47;0.32;;;;;;;9.83;100.00;101900.91;5029540;28;20565;-43
2023/11/23 05:46:27;;;;;;;0.40;0.30;;;;;;;9.82;100.00;101915.88;5016749;28;20518;-43
2023/11/23 05:48:55;;;;;;;1.55;0.22;;;;;;;9.80;100.00;101918.13;5029452;28;20048;-45
2023/11/23 05:51:22;;;;;;;0.85;0.22;;;;;;;9.79;100.00;101906.22;5030226;28;20045;-45
2023/11/23 05:53:51;;;;;;;3.13;0.38;;;;;;;9.79;100.00;101899.91;5029620;28;20042;-43
2023/11/23 05:56:18;;;;;;;1.73;0.75;;;;;;;9.80;100.00;101887.69;5022128;28;20053;-43
2023/11/23 05:58:45;;;;;;;2.03;0.43;;;;;;;9.78;100.00;101881.66;5023868;28;20582;-43
2023/11/23 06:01:13;;;;;;;0.82;0.38;;;;;;;9.79;100.00;101902.66;5029692;28;20518;-43
2023/11/23 06:03:40;;;;;;;2.20;0.43;;;;;;;9.78;100.00;101904.63;5029016;28;20526;-43
2023/11/23 06:06:21;;;;;;;2.20;0.60;;;;;;;9.77;100.00;101902.97;5028981;28;20729;-46
2023/11/23 06:08:49;;;;;;;3.47;0.40;;;;;;;9.78;100.00;101907.38;5029003;28;20041;-47
2023/11/23 06:11:17;;;;;;;1.95;0.20;;;;;;;9.77;100.00;101913.19;5029453;28;20068;-43
2023/11/23 06:13:45;;;;;;;2.33;0.50;;;;;;;9.78;100.00;101912.91;5029211;28;20052;-43
2023/11/23 06:16:13;;;;;;;2.97;0.43;;;;;;;9.78;100.00;101907.38;5029624;28;20049;-43
2023/11/23 06:18:41;;;;;;;0.20;0.20;;;;;;;9.79;100.00;101910.97;5028080;28;20053;-44
2023/11/23 06:21:09;;;;;;;1.58;0.30;;;;;;;9.78;100.00;101895.50;5021648;28;20061;-46
2023/11/23 06:23:36;;;;;;;4.25;0.73;;;;;;;9.79;100.00;101899.91;5028908;28;20053;-43
2023/11/23 06:26:03;;;;;;;3.70;0.77;;;;;;;9.79;100.00;101905.44;5028702;28;20049;-43
2023/11/23 06:28:31;;;;;;;1.73;0.45;;;;;;;9.79;100.00;101899.91;5028051;28;20050;-43
2023/11/23 06:30:58;;;;;;;2.78;0.52;;;;;;;9.80;100.00;101879.41;5028779;28;20103;-43
2023/11/23 06:33:27;;;;;;;4.05;0.98;;;;;;;9.80;100.00;101884.94;5028411;28;20053;-43
2023/11/23 06:35:57;;;;;;;2.35;0.60;;;;;;;9.79;100.00;101875.81;5027100;28;20529;-43
2023/11/23 06:38:24;;;;;;;0.55;0.38;;;;;;;9.79;100.00;101881.34;5022368;28;20045;-45
2023/11/23 06:40:54;;;;;;;0.93;0.52;;;;;;;9.79;100.00;101880.53;5028882;28;20064;-45
2023/11/23 06:43:21;;;;;;;1.05;0.63;;;;;;;9.78;100.00;101888.03;5016919;28;20046;-44
2023/11/23 06:45:49;;;;;;;0.88;0.30;;;;;;;9.78;100.00;101898.25;5028106;28;20053;-44
2023/11/23 06:48:16;;;;;;;0.40;0.30;;;;;;;9.78;100.00;101885.25;5029426;28;20046;-43
2023/11/23 06:50:44;;;;;;;2.80;0.60;;;;;;;9.79;100.00;101888.84;5028729;28;20577;-43
2023/11/23 06:53:11;;;;;;;0.77;0.40;;;;;;;9.78;100.00;101887.19;5027159;28;20049;-43
2023/11/23 06:55:39;;;;;;;2.50;0.57;;;;;;;9.79;100.00;101878.56;5023918;28;20037;-44
2023/11/23 06:58:06;;;;;;;0.95;0.35;;;;;;;9.79;100.00;101880.53;5028723;28;20422;-43
2023/11/23 07:00:38;;;;;;;0.43;0.43;;;;;;;9.79;100.00;101883.31;5028240;28;20612;-43
2023/11/23 07:03:06;;;;;;;2.00;0.68;;;;;;;9.78;100.00;101876.97;5028242;28;20056;-43
2023/11/23 07:05:33;;;;;;;2.67;0.50;;;;;;;9.79;100.00;101883.31;5028103;28;20049;-43
2023/11/23 07:08:00;;;;;;;2.22;0.60;;;;;;;9.80;100.00;101887.69;5027825;28;20049;-43
2023/11/23 07:10:28;;;;;;;1.77;0.73;;;;;;;9.79;100.00;101894.38;5028205;28;20696;-46
2023/11/23 07:12:55;;;;;;;2.85;0.55;;;;;;;9.79;100.00;101889.63;5028627;28;20049;-43
2023/11/23 07:15:24;;;;;;;4.43;0.93;;;;;;;9.78;100.00;101882.50;5027647;28;20041;-44
2023/11/23 07:17:52;;;;;;;4.25;1.20;;;;;;;9.78;100.00;101899.09;5027992;28;20060;-44
2023/11/23 07:20:20;;;;;;;4.13;0.75;;;;;;;9.80;100.00;101884.94;5019970;28;20510;-43
2023/11/23 07:22:47;;;;;;;3.35;1.13;;;;;;;9.79;100.00;101900.69;5023161;28;20052;-42
2023/11/23 07:25:15;;;;;;;4.53;0.68;;;;;;;9.82;100.00;101893.75;5028309;28;20049;-43
2023/11/23 07:27:42;;;;;;;5.20;0.90;;;;;;;9.82;100.00;101906.75;5027204;28;20129;-43
2023/11/23 07:30:11;;;;;;;2.80;0.73;;;;;;;9.82;100.00;101913.13;5027623;28;20049;-43
2023/11/23 07:32:38;;;;;;;9.13;2.63;;;;;;;9.82;100.00;101904.00;5024609;28;20045;-44
2023/11/23 07:35:06;;;;;;;12.63;1.98;;;;;;;9.83;100.00;101900.91;5027305;28;20415;-46
2023/11/23 07:37:34;;;;;;;3.80;1.10;;;;;;;9.83;100.00;101917.50;5017807;28;20052;-45
2023/11/23 07:40:12;;;;;;;5.72;1.25;;;;;;;9.84;100.00;101913.63;5027850;28;20533;-43
2023/11/23 07:42:42;;;;;;;5.57;1.20;;;;;;;9.85;100.00;101911.66;5027548;28;20054;-45
2023/11/23 07:45:11;;;;;;;4.88;1.52;;;;;;;9.85;100.00;101898.63;5027226;28;20424;-43
2023/11/23 07:47:41;;;;;;;4.63;1.48;;;;;;;9.85;100.00;101903.38;5026536;28;20097;-43
2023/11/23 07:50:15;;;;;;;13.70;2.20;;;;;;;9.87;100.00;101890.03;5026377;28;20056;-43
2023/11/23 07:52:44;;;;;;;6.28;2.08;;;;;;;9.87;100.00;101912.16;5015948;28;20651;-44
2023/11/23 07:55:15;;;;;;;3.58;1.42;;;;;;;9.88;100.00;101909.06;5016895;28;20049;-43
2023/11/23 07:57:44;;;;;;;4.22;1.45;;;;;;;9.89;100.00;101896.91;5017096;28;20516;-43
2023/11/23 08:00:13;;;;;;;7.38;1.63;;;;;;;9.90;100.00;101920.63;5015449;28;20056;-44
2023/11/23 08:02:41;;;;;;;8.50;2.05;;;;;;;9.91;100.00;101908.47;5021671;28;20042;-48
2023/11/23 08:05:09;;;;;;;11.25;2.28;;;;;;;9.92;100.00;101918.41;5027390;28;20053;-43
2023/11/23 08:07:36;;;;;;;5.88;2.40;;;;;;;9.93;100.00;101911.72;5024915;28;20041;-44
2023/11/23 08:10:12;;;;;;;6.10;2.10;;;;;;;9.94;100.00;101905.06;5024557;28;20042;-43
2023/11/23 08:12:40;;;;;;;8.43;2.45;;;;;;;9.95;100.00;101901.19;5021504;28;20052;-43
2023/11/23 08:15:09;;;;;;;14.57;2.92;;;;;;;9.97;100.00;101896.16;5024964;28;20076;-44
2023/11/23 08:17:37;;;;;;;8.95;2.38;;;;;;;9.98;100.00;101895.00;5025607;28;20522;-44
2023/11/23 08:20:09;;;;;;;9.52;3.20;;;;;;;9.99;100.00;101899.41;5026508;28;20061;-43
2023/11/23 08:22:38;;;;;;;7.15;3.10;;;;;;;10.02;100.00;101897.97;5026344;28;20396;-42
2023/11/23 08:25:06;;;;;;;10.90;3.55;;;;;;;10.02;100.00;101893.25;5026766;28;20053;-43
2023/11/23 08:27:33;;;;;;;19.92;6.28;;;;;;;10.05;100.00;101894.56;5026432;28;20411;-45
2023/11/23 08:30:03;;;;;;;12.95;3.17;;;;;;;10.06;100.00;101896.22;5026297;28;20503;-45
2023/11/23 08:32:31;;;;;;;10.68;3.45;;;;;;;10.07;100.00;101895.91;5016262;28;20376;-46
2023/11/23 08:35:00;;;;;;;11.27;3.83;;;;;;;10.08;100.00;101894.78;5025113;28;20053;-45
2023/11/23 08:37:27;;;;;;;16.50;4.32;;;;;;;10.09;100.00;101888.09;5027076;28;20053;-44
2023/11/23 08:39:55;;;;;;;10.43;3.50;;;;;;;10.11;100.00;101885.81;5025151;28;20045;-44
2023/11/23 08:42:22;;;;;;;13.98;4.20;;;;;;;10.13;100.00;101902.16;5026528;28;20046;-44
2023/11/23 08:44:50;;;;;;;12.60;3.70;;;;;;;10.15;100.00;101889.66;5026632;28;20585;-43
2023/11/23 08:47:17;;;;;;;14.13;3.80;;;;;;;10.17;100.00;101890.13;5026230;28;20052;-45
2023/11/23 08:49:44;;;;;;;14.68;4.78;;;;;;;10.18;100.00;101902.84;5026458;28;20533;-45
2023/11/23 08:52:13;;;;;;;13.05;4.65;;;;;;;10.19;100.00;101904.47;5026642;28;20049;-43
2023/11/23 08:54:40;;;;;;;11.70;3.78;;;;;;;10.22;100.00;101898.31;5027014;28;20049;-44
2023/11/23 08:57:08;;;;;;;10.27;3.55;;;;;;;10.22;100.00;101891.94;5026565;28;20518;-48
2023/11/23 08:59:37;;;;;;;15.70;3.58;;;;;;;10.24;100.00;101893.31;5026484;28;20526;-44
2023/11/23 09:02:07;;;;;;;9.52;2.90;;;;;;;10.27;100.00;101900.16;5027040;28;20065;-44
2023/11/23 09:04:47;;;;;;;11.30;3.20;;;;;;;10.29;100.00;101887.63;5026806;28;20926;-44
2023/11/23 09:07:15;;;;;;;10.93;3.75;;;;;;;10.30;100.00;101886.47;5026878;28;20408;-43
2023/11/23 09:09:43;;;;;;;13.60;3.40;;;;;;;10.31;100.00;101879.81;5026658;28;20053;-46
2023/11/23 09:12:11;;;;;;;11.80;3.65;;;;;;;10.32;100.00;101903.63;5005231;28;20499;-44
2023/11/23 09:14:39;;;;;;;9.90;3.58;;;;;;;10.31;100.00;101893.66;5017272;28;20053;-47
2023/11/23 09:17:16;;;;;;;6.18;2.20;;;;;;;10.34;100.00;101886.69;5026675;28;20045;-44
2023/11/23 09:19:46;;;;;;;14.05;2.65;;;;;;;10.36;100.00;101890.78;5018781;28;20041;-45
2023/11/23 09:22:13;;;;;;;5.88;2.15;;;;;;;10.38;100.00;101884.91;5026152;28;20068;-44
2023/11/23 09:24:41;;;;;;;9.18;2.78;;;;;;;10.43;100.00;101875.66;5025863;28;20045;-45
2023/11/23 09:27:09;;;;;;;6.97;2.78;;;;;;;10.46;100.00;101869.50;5026725;28;20057;-43
2023/11/23 09:29:37;;;;;;;7.50;2.65;;;;;;;10.47;100.00;101876.66;5025641;28;20049;-45
2023/11/23 09:32:05;;;;;;;6.18;3.00;;;;;;;10.49;100.00;101879.91;5026840;28;20050;-45
2023/11/23 09:34:33;;;;;;;10.90;2.65;;;;;;;10.50;100.00;101868.53;5025540;28;20049;-46
2023/11/23 09:37:01;;;;;;;13.27;3.63;;;;;;;10.52;100.00;101884.81;5026594;28;20049;-45
2023/11/23 09:39:28;;;;;;;14.85;3.70;;;;;;;10.58;100.00;101883.56;5025915;28;20046;-46
2023/11/23 09:41:59;;;;;;;11.30;4.10;;;;;;;10.62;100.00;101865.16;5028907;28;20056;-47
2023/11/23 09:44:26;;;;;;;7.32;2.90;;;;;;;10.63;100.00;101878.72;5029928;28;20041;-44
2023/11/23 09:46:55;;;;;;;9.65;2.67;;;;;;;10.66;100.00;101886.38;5029855;28;20877;-43
2023/11/23 09:49:23;;;;;;;9.98;3.67;;;;;;;10.73;100.00;101885.91;5030044;28;20404;-44
2023/11/23 09:51:52;;;;;;;5.35;2.35;;;;;;;10.79;100.00;101881.88;5029842;28;20636;-44
2023/11/23 09:54:23;;;;;;;10.35;2.95;;;;;;;10.82;100.00;101875.72;5030165;28;20132;-44
2023/11/23 09:56:51;;;;;;;6.07;2.10;;;;;;;10.82;100.00;101864.63;5029650;28;20060;-44
2023/11/23 09:59:18;;;;;;;9.20;2.00;;;;;;;10.81;100.00;101868.53;5029946;28;20710;-46
2023/11/23 10:01:48;;;;;;;6.90;3.15;;;;;;;10.78;100.00;101853.34;5029001;28;20056;-44
2023/11/23 10:04:15;;;;;;;8.50;2.65;;;;;;;10.77;100.00;101868.38;5028982;28;20056;-47
2023/11/23 10:06:45;;;;;;;4.30;2.03;;;;;;;10.77;100.00;101870.31;5029753;28;20430;-44
2023/11/23 10:09:16;;;;;;;8.88;2.22;;;;;;;10.81;100.00;101862.97;5029471;28;20704;-44
2023/11/23 10:11:43;;;;;;;4.07;2.20;;;;;;;10.82;100.00;101865.44;5029023;28;20056;-44
2023/11/23 10:14:11;;;;;;;8.93;2.20;;;;;;;10.82;100.00;101851.59;5029590;28;20057;-43
2023/11/23 10:16:39;;;;;;;6.28;1.95;;;;;;;10.87;100.00;101870.03;5029843;28;20060;-44
2023/11/23 10:19:08;;;;;;;6.55;2.03;;;;;;;10.96;100.00;101871.69;5026550;28;20466;-47
2023/11/23 10:21:35;;;;;;;8.93;3.58;;;;;;;10.98;100.00;101877.75;5024526;28;20038;-43
2023/11/23 10:24:08;;;;;;;4.18;2.17;;;;;;;10.97;100.00;101891.91;5028799;28;20054;-44
2023/11/23 10:26:35;;;;;;;14.00;2.53;;;;;;;11.01;100.00;101884.59;5029253;28;20049;-44
2023/11/23 10:29:03;;;;;;;7.32;1.98;;;;;;;11.01;100.00;101882.63;5029334;28;20053;-44
2023/11/23 10:31:31;;;;;;;8.30;2.15;;;;;;;11.01;100.00;101890.13;5028995;28;20064;-46
2023/11/23 10:33:59;;;;;;;5.38;2.08;;;;;;;11.05;100.00;101895.84;5027416;28;20049;-44
2023/11/23 10:36:27;;;;;;;12.50;3.13;;;;;;;11.07;100.00;101890.81;5029050;28;20053;-43
2023/11/23 10:38:56;;;;;;;7.07;1.48;;;;;;;11.09;100.00;101872.72;5011840;28;20053;-45
2023/11/23 10:41:24;;;;;;;9.88;1.80;;;;;;;11.12;100.00;101876.81;5028812;28;20053;-48
2023/11/23 10:43:52;;;;;;;6.95;1.88;;;;;;;11.10;100.00;101879.88;5028972;28;20046;-45
2023/11/23 10:46:20;;;;;;;6.25;2.42;;;;;;;11.10;100.00;101868.78;5028615;28;20052;-44
2023/11/23 10:48:48;;;;;;;5.38;2.10;;;;;;;11.12;100.00;101863.75;5028291;28;20049;-43
2023/11/23 10:51:17;;;;;;;4.65;2.17;;;;;;;11.15;100.00;101854.78;5028001;28;20057;-43
2023/11/23 10:53:45;;;;;;;6.60;1.90;;;;;;;11.18;100.00;101879.09;5026980;28;20051;-48
2023/11/23 10:56:19;;;;;;;8.40;1.88;;;;;;;11.17;100.00;101873.88;5023020;28;20656;-43
2023/11/23 10:58:50;;;;;;;5.25;2.03;;;;;;;11.15;100.00;101876.13;5023335;28;20049;-46
2023/11/23 11:01:21;;;;;;;6.03;2.10;;;;;;;11.15;100.00;101890.81;5028856;28;20523;-44
2023/11/23 11:03:49;;;;;;;5.18;1.80;;;;;;;11.17;100.00;101890.50;5014783;28;20049;-44
2023/11/23 11:06:18;;;;;;;11.18;2.10;;;;;;;11.16;100.00;101889.69;5028732;28;20072;-44
2023/11/23 11:08:48;;;;;;;5.10;1.85;;;;;;;11.17;100.00;101884.97;5028263;28;20060;-43
2023/11/23 11:11:25;;;;;;;7.25;2.65;;;;;;;11.19;100.00;101893.78;5010654;28;20060;-44
2023/11/23 11:14:02;;;;;;;10.23;2.42;;;;;;;11.21;100.00;101878.44;5028786;28;20469;-44
2023/11/23 11:16:35;;;;;;;3.75;1.92;;;;;;;11.24;100.00;101875.03;5028222;28;20585;-45
2023/11/23 11:19:06;;;;;;;7.65;2.25;;;;;;;11.25;100.00;101862.78;5026558;28;20046;-45
2023/11/23 11:21:50;;;;;;;5.75;2.65;;;;;;;11.29;100.00;101855.47;5022694;28;20065;-44
2023/11/23 11:24:21;;;;;;;7.60;1.88;;;;;;;11.32;100.00;101845.69;5028301;28;20057;-44
2023/11/23 11:26:49;;;;;;;6.53;1.75;;;;;;;11.35;100.00;101853.38;5028179;28;20064;-43